Time;durP1;ratioP1;P1;durP2;ratioP2;P2;SDS_P1;SDS_P2;PMS_P1;PMS_P2;Temp;Humidity;BMP_temperature;BMP_pressure;BME280_temperature;BME280_humidity;BME280_pressure;Samples;Min_cycle;Max_cycle;Signal;HPM_P1;HPM_P2
2023/03/09 00:01:29;;;;;;;;;;;;;;;;;;5017981;28;19914;-56
2023/03/09 00:03:55;;;;;;;;;;;;;;;;;;5034944;28;20039;-55
2023/03/09 00:06:21;;;;;;;;;;;;;;;;;;5034778;28;19916;-56
2023/03/09 00:08:47;;;;;;;;;;;;;;;;;;5034286;28;19941;-56
2023/03/09 00:11:13;;;;;;;;;;;;;;;;;;5034924;28;19909;-56
2023/03/09 00:13:39;;;;;;;;;;;;;;;;;;5028222;28;20046;-56
2023/03/09 00:16:05;;;;;;;;;;;;;;;;;;5034826;28;19920;-56
2023/03/09 00:18:31;;;;;;;;;;;;;;;;;;5035119;28;20392;-56
2023/03/09 00:20:56;;;;;;;;;;;;;;;;;;5034605;28;19924;-56
2023/03/09 00:23:22;;;;;;;;;;;;;;;;;;5015677;28;20444;-55
2023/03/09 00:25:48;;;;;;;;;;;;;;;;;;5028309;28;19913;-55
2023/03/09 00:28:14;;;;;;;;;;;;;;;;;;5034573;28;19925;-57
2023/03/09 00:30:40;;;;;;;;;;;;;;;;;;5034474;28;19956;-55
2023/03/09 00:33:06;;;;;;;;;;;;;;;;;;5016565;28;19914;-56
2023/03/09 00:35:32;;;;;;;;;;;;;;;;;;5021675;28;19913;-56
2023/03/09 00:37:58;;;;;;;;;;;;;;;;;;5015236;28;20000;-53
2023/03/09 00:40:24;;;;;;;;;;;;;;;;;;5020342;28;19919;-52
2023/03/09 00:42:50;;;;;;;;;;;;;;;;;;5034619;28;19983;-56
2023/03/09 00:45:17;;;;;;;;;;;;;;;;;;5030788;28;20468;-55
2023/03/09 00:47:43;;;;;;;;;;;;;;;;;;5016031;28;20378;-56
2023/03/09 00:50:09;;;;;;;;;;;;;;;;;;5015017;28;19924;-55
2023/03/09 00:52:35;;;;;;;;;;;;;;;;;;5031377;28;20015;-57
2023/03/09 00:55:01;;;;;;;;;;;;;;;;;;5034661;28;19921;-56
2023/03/09 00:57:26;;;;;;;;;;;;;;;;;;5034900;28;19913;-56
2023/03/09 00:59:53;;;;;;;;;;;;;;;;;;5019473;28;19913;-56
2023/03/09 01:02:19;;;;;;;;;;;;;;;;;;5021144;28;19914;-57
2023/03/09 01:04:45;;;;;;;;;;;;;;;;;;5014980;28;19916;-55
2023/03/09 01:07:10;;;;;;;;;;;;;;;;;;5023761;28;19913;-56
2023/03/09 01:09:36;;;;;;;;;;;;;;;;;;5023131;28;19921;-53
2023/03/09 01:12:02;;;;;;;;;;;;;;;;;;5013469;28;19914;-56
2023/03/09 01:14:28;;;;;;;;;;;;;;;;;;5017316;28;20017;-55
2023/03/09 01:16:54;;;;;;;;;;;;;;;;;;5012174;28;20404;-56
2023/03/09 01:19:20;;;;;;;;;;;;;;;;;;5025901;28;19913;-56
2023/03/09 01:21:46;;;;;;;;;;;;;;;;;;5031222;28;19931;-55
2023/03/09 01:24:12;;;;;;;;;;;;;;;;;;5030912;28;19913;-55
2023/03/09 01:26:37;;;;;;;;;;;;;;;;;;5012055;28;19914;-56
2023/03/09 01:29:03;;;;;;;;;;;;;;;;;;5011734;28;19960;-56
2023/03/09 01:31:29;;;;;;;;;;;;;;;;;;5012223;28;19909;-57
2023/03/09 01:33:55;;;;;;;;;;;;;;;;;;5018076;28;20456;-57
2023/03/09 01:36:21;;;;;;;;;;;;;;;;;;5013298;28;19910;-55
2023/03/09 01:38:47;;;;;;;;;;;;;;;;;;5011914;28;19914;-56
2023/03/09 01:41:13;;;;;;;;;;;;;;;;;;5011839;28;19996;-56
2023/03/09 01:43:39;;;;;;;;;;;;;;;;;;5011948;28;20400;-57
2023/03/09 01:46:05;;;;;;;;;;;;;;;;;;5016289;28;19917;-56
2023/03/09 01:48:31;;;;;;;;;;;;;;;;;;5030115;28;19910;-56
2023/03/09 01:50:57;;;;;;;;;;;;;;;;;;5030408;28;19909;-56
2023/03/09 01:53:23;;;;;;;;;;;;;;;;;;5030333;28;20000;-57
2023/03/09 01:55:49;;;;;;;;;;;;;;;;;;5021065;28;19960;-56
2023/03/09 01:58:16;;;;;;;;;;;;;;;;;;5027137;28;19939;-56
2023/03/09 02:00:42;;;;;;;;;;;;;;;;;;5030532;28;19932;-56
2023/03/09 02:03:08;;;;;;;;;;;;;;;;;;5029846;28;19918;-56
2023/03/09 02:05:33;;;;;;;;;;;;;;;;;;5030452;28;19919;-56
2023/03/09 02:07:59;;;;;;;;;;;;;;;;;;5030529;28;19955;-56
2023/03/09 02:10:25;;;;;;;;;;;;;;;;;;5030408;28;20333;-56
2023/03/09 02:12:54;;;;;;;;;;;;;;;;;;5015664;28;19961;-57
2023/03/09 02:15:20;;;;;;;;;;;;;;;;;;5011476;28;19910;-56
2023/03/09 02:17:46;;;;;;;;;;;;;;;;;;5012696;28;19944;-56
2023/03/09 02:20:12;;;;;;;;;;;;;;;;;;5029603;28;19949;-57
2023/03/09 02:22:37;;;;;;;;;;;;;;;;;;5029859;28;19909;-56
2023/03/09 02:25:03;;;;;;;;;;;;;;;;;;5030017;28;19935;-57
2023/03/09 02:27:29;;;;;;;;;;;;;;;;;;5030144;28;19965;-57
2023/03/09 02:29:55;;;;;;;;;;;;;;;;;;5029877;28;19917;-57
2023/03/09 02:32:21;;;;;;;;;;;;;;;;;;5030045;28;20004;-57
2023/03/09 02:34:47;;;;;;;;;;;;;;;;;;5029630;28;19983;-54
2023/03/09 02:37:13;;;;;;;;;;;;;;;;;;5011260;28;19917;-55
2023/03/09 02:39:39;;;;;;;;;;;;;;;;;;5010931;28;19917;-53
2023/03/09 02:42:05;;;;;;;;;;;;;;;;;;5016057;28;20390;-56
2023/03/09 02:44:31;;;;;;;;;;;;;;;;;;5029855;28;19996;-57
2023/03/09 02:46:56;;;;;;;;;;;;;;;;;;5029905;28;19974;-56
2023/03/09 02:49:22;;;;;;;;;;;;;;;;;;5029376;28;19921;-55
2023/03/09 02:51:48;;;;;;;;;;;;;;;;;;5029505;28;19957;-56
2023/03/09 02:54:14;;;;;;;;;;;;;;;;;;5030407;28;19909;-56
2023/03/09 02:56:40;;;;;;;;;;;;;;;;;;5029497;28;19995;-56
2023/03/09 02:59:06;;;;;;;;;;;;;;;;;;5013199;28;20029;-57
2023/03/09 03:01:32;;;;;;;;;;;;;;;;;;5009937;28;19910;-57
2023/03/09 03:03:58;;;;;;;;;;;;;;;;;;5010204;28;19924;-55
2023/03/09 03:06:24;;;;;;;;;;;;;;;;;;5010498;28;19913;-57
2023/03/09 03:08:50;;;;;;;;;;;;;;;;;;5012591;28;19917;-56
2023/03/09 03:11:15;;;;;;;;;;;;;;;;;;5029307;28;20432;-57
2023/03/09 03:13:41;;;;;;;;;;;;;;;;;;5029554;28;19939;-56
2023/03/09 03:16:07;;;;;;;;;;;;;;;;;;5028686;28;19913;-56
2023/03/09 03:18:33;;;;;;;;;;;;;;;;;;5028935;28;20008;-55
2023/03/09 03:20:59;;;;;;;;;;;;;;;;;;5027957;28;20001;-56
2023/03/09 03:23:25;;;;;;;;;;;;;;;;;;5010761;28;19913;-55
2023/03/09 03:25:51;;;;;;;;;;;;;;;;;;5010035;28;20325;-56
2023/03/09 03:28:17;;;;;;;;;;;;;;;;;;5010118;28;20391;-55
2023/03/09 03:30:43;;;;;;;;;;;;;;;;;;5026026;28;20457;-56
2023/03/09 03:33:09;;;;;;;;;;;;;;;;;;5028928;28;19917;-56
2023/03/09 03:35:34;;;;;;;;;;;;;;;;;;5022591;28;19940;-56
2023/03/09 03:38:00;;;;;;;;;;;;;;;;;;5010510;28;19913;-56
2023/03/09 03:40:26;;;;;;;;;;;;;;;;;;5024552;28;20005;-56
2023/03/09 03:42:52;;;;;;;;;;;;;;;;;;5028836;28;19909;-54
2023/03/09 03:45:19;;;;;;;;;;;;;;;;;;5028758;28;19913;-56
2023/03/09 03:47:45;;;;;;;;;;;;;;;;;;5028489;28;19909;-57
2023/03/09 03:50:11;;;;;;;;;;;;;;;;;;5028522;28;19921;-56
2023/03/09 03:52:37;;;;;;;;;;;;;;;;;;5029044;28;19956;-56
2023/03/09 03:55:03;;;;;;;;;;;;;;;;;;5028643;28;19909;-56
2023/03/09 03:57:28;;;;;;;;;;;;;;;;;;5011616;28;19953;-55
2023/03/09 03:59:54;;;;;;;;;;;;;;;;;;5009618;28;19957;-56
2023/03/09 04:02:20;;;;;;;;;;;;;;;;;;5009376;28;20549;-56
2023/03/09 04:04:46;;;;;;;;;;;;;;;;;;5009631;28;19913;-56
2023/03/09 04:07:12;;;;;;;;;;;;;;;;;;5010144;28;19909;-54
2023/03/09 04:09:38;;;;;;;;;;;;;;;;;;5009310;28;19921;-56
2023/03/09 04:12:04;;;;;;;;;;;;;;;;;;5009276;28;19914;-56
2023/03/09 04:14:30;;;;;;;;;;;;;;;;;;5008982;28;19916;-56
2023/03/09 04:16:56;;;;;;;;;;;;;;;;;;5009522;28;19914;-56
2023/03/09 04:19:22;;;;;;;;;;;;;;;;;;5009735;28;20417;-55
2023/03/09 04:21:48;;;;;;;;;;;;;;;;;;5010377;28;19914;-56
2023/03/09 04:24:13;;;;;;;;;;;;;;;;;;5010161;28;20297;-56
2023/03/09 04:26:39;;;;;;;;;;;;;;;;;;5028335;28;20048;-57
2023/03/09 04:29:05;;;;;;;;;;;;;;;;;;5027831;28;20075;-56
2023/03/09 04:31:31;;;;;;;;;;;;;;;;;;5021809;28;19913;-55
2023/03/09 04:33:57;;;;;;;;;;;;;;;;;;5009400;28;19914;-56
2023/03/09 04:36:23;;;;;;;;;;;;;;;;;;5010116;28;20443;-56
2023/03/09 04:38:49;;;;;;;;;;;;;;;;;;5009249;28;20015;-56
2023/03/09 04:41:15;;;;;;;;;;;;;;;;;;5015185;28;20003;-55
2023/03/09 04:43:41;;;;;;;;;;;;;;;;;;5031181;28;20415;-56
2023/03/09 04:46:07;;;;;;;;;;;;;;;;;;5032272;28;20408;-54
2023/03/09 04:48:32;;;;;;;;;;;;;;;;;;5032066;28;19960;-57
2023/03/09 04:50:58;;;;;;;;;;;;;;;;;;5014479;28;19998;-56
2023/03/09 04:53:24;;;;;;;;;;;;;;;;;;5012953;28;19957;-56
2023/03/09 04:55:50;;;;;;;;;;;;;;;;;;5013268;28;19909;-56
2023/03/09 04:58:16;;;;;;;;;;;;;;;;;;5015147;28;19960;-55
2023/03/09 05:00:42;;;;;;;;;;;;;;;;;;5012653;28;19909;-55
2023/03/09 05:03:08;;;;;;;;;;;;;;;;;;5012864;28;19910;-55
2023/03/09 05:05:34;;;;;;;;;;;;;;;;;;5012613;28;19995;-56
2023/03/09 05:08:00;;;;;;;;;;;;;;;;;;5012892;28;19913;-56
2023/03/09 05:10:26;;;;;;;;;;;;;;;;;;5012388;28;19921;-54
2023/03/09 05:12:51;;;;;;;;;;;;;;;;;;5012271;28;19963;-56
2023/03/09 05:15:17;;;;;;;;;;;;;;;;;;5012567;28;19910;-56
2023/03/09 05:17:43;;;;;;;;;;;;;;;;;;5012594;28;19961;-56
2023/03/09 05:20:10;;;;;;;;;;;;;;;;;;5012629;28;19913;-56
2023/03/09 05:22:37;;;;;;;;;;;;;;;;;;5021689;28;20012;-53
2023/03/09 05:25:03;;;;;;;;;;;;;;;;;;5031592;28;19920;-56
2023/03/09 05:27:29;;;;;;;;;;;;;;;;;;5030678;28;19925;-56
2023/03/09 05:29:54;;;;;;;;;;;;;;;;;;5030865;28;19925;-55
2023/03/09 05:32:20;;;;;;;;;;;;;;;;;;5031351;28;20711;-56
2023/03/09 05:34:46;;;;;;;;;;;;;;;;;;5031261;28;19966;-55
2023/03/09 05:37:12;;;;;;;;;;;;;;;;;;5017071;28;20223;-56
2023/03/09 05:39:38;;;;;;;;;;;;;;;;;;5011922;28;20350;-56
2023/03/09 05:42:05;;;;;;;;;;;;;;;;;;5017312;28;19916;-56
2023/03/09 05:44:31;;;;;;;;;;;;;;;;;;5031382;28;20745;-56
2023/03/09 05:46:57;;;;;;;;;;;;;;;;;;5030567;28;19913;-55
2023/03/09 05:49:23;;;;;;;;;;;;;;;;;;5030806;28;19967;-56
2023/03/09 05:51:49;;;;;;;;;;;;;;;;;;5030616;28;19917;-56
2023/03/09 05:54:16;;;;;;;;;;;;;;;;;;5029734;28;19913;-56
2023/03/09 05:56:42;;;;;;;;;;;;;;;;;;5030370;28;19920;-56
2023/03/09 05:59:08;;;;;;;;;;;;;;;;;;5029070;28;20290;-56
2023/03/09 06:01:34;;;;;;;;;;;;;;;;;;5030774;28;19913;-56
2023/03/09 06:04:00;;;;;;;;;;;;;;;;;;5030240;28;19920;-56
2023/03/09 06:06:26;;;;;;;;;;;;;;;;;;5031206;28;19909;-56
2023/03/09 06:08:52;;;;;;;;;;;;;;;;;;5030594;28;20646;-56
2023/03/09 06:11:18;;;;;;;;;;;;;;;;;;5029878;28;19913;-55
2023/03/09 06:13:44;;;;;;;;;;;;;;;;;;5025772;28;19910;-56
2023/03/09 06:16:10;;;;;;;;;;;;;;;;;;5011830;28;20294;-56
2023/03/09 06:18:36;;;;;;;;;;;;;;;;;;5011669;28;19917;-57
2023/03/09 06:21:01;;;;;;;;;;;;;;;;;;5014111;28;20354;-56
2023/03/09 06:23:27;;;;;;;;;;;;;;;;;;5013138;28;20465;-56
2023/03/09 06:25:53;;;;;;;;;;;;;;;;;;5010795;28;20008;-55
2023/03/09 06:28:19;;;;;;;;;;;;;;;;;;5016776;28;19925;-54
2023/03/09 06:30:45;;;;;;;;;;;;;;;;;;5019016;28;19921;-56
2023/03/09 06:33:11;;;;;;;;;;;;;;;;;;5029727;28;19996;-56
2023/03/09 06:35:37;;;;;;;;;;;;;;;;;;5022815;28;19932;-55
2023/03/09 06:38:03;;;;;;;;;;;;;;;;;;5017486;28;19913;-56
2023/03/09 06:40:29;;;;;;;;;;;;;;;;;;5011160;28;19941;-56
2023/03/09 06:42:55;;;;;;;;;;;;;;;;;;5010580;28;19967;-56
2023/03/09 06:45:21;;;;;;;;;;;;;;;;;;5029745;28;19920;-56
2023/03/09 06:47:47;;;;;;;;;;;;;;;;;;5029642;28;20435;-56
2023/03/09 06:50:12;;;;;;;;;;;;;;;;;;5029806;28;19918;-57
2023/03/09 06:52:38;;;;;;;;;;;;;;;;;;5029172;28;19909;-57
2023/03/09 06:55:04;;;;;;;;;;;;;;;;;;5029479;28;19936;-56
2023/03/09 06:57:30;;;;;;;;;;;;;;;;;;5029560;28;19913;-56
2023/03/09 06:59:56;;;;;;;;;;;;;;;;;;5029374;28;19914;-59
2023/03/09 07:02:22;;;;;;;;;;;;;;;;;;5029164;28;19928;-56
2023/03/09 07:04:48;;;;;;;;;;;;;;;;;;5029607;28;20010;-56
2023/03/09 07:07:15;;;;;;;;;;;;;;;;;;5029053;28;19913;-56
2023/03/09 07:09:41;;;;;;;;;;;;;;;;;;5025219;28;20044;-56
2023/03/09 07:12:07;;;;;;;;;;;;;;;;;;5010086;28;19929;-57
2023/03/09 07:14:32;;;;;;;;;;;;;;;;;;5009871;28;19917;-56
2023/03/09 07:16:58;;;;;;;;;;;;;;;;;;5025466;28;20413;-57
2023/03/09 07:19:25;;;;;;;;;;;;;;;;;;5020037;28;19936;-56
2023/03/09 07:21:53;;;;;;;;;;;;;;;;;;5009889;28;19917;-56
2023/03/09 07:24:19;;;;;;;;;;;;;;;;;;5009865;28;20423;-55
2023/03/09 07:26:45;;;;;;;;;;;;;;;;;;5009725;28;19917;-56
2023/03/09 07:29:11;;;;;;;;;;;;;;;;;;5010004;28;19960;-55
2023/03/09 07:31:36;;;;;;;;;;;;;;;;;;5009743;28;19929;-56
2023/03/09 07:34:02;;;;;;;;;;;;;;;;;;5012990;28;19984;-56
2023/03/09 07:36:28;;;;;;;;;;;;;;;;;;5009912;28;19914;-56
2023/03/09 07:38:54;;;;;;;;;;;;;;;;;;5009493;28;20000;-56
2023/03/09 07:41:20;;;;;;;;;;;;;;;;;;5022735;28;20020;-56
2023/03/09 07:43:46;;;;;;;;;;;;;;;;;;5029199;28;20449;-56
2023/03/09 07:46:13;;;;;;;;;;;;;;;;;;5028225;28;20382;-57
2023/03/09 07:48:39;;;;;;;;;;;;;;;;;;5028123;28;20390;-56
2023/03/09 07:51:05;;;;;;;;;;;;;;;;;;5028343;28;19916;-56
2023/03/09 07:53:31;;;;;;;;;;;;;;;;;;5028440;28;20401;-56
2023/03/09 07:55:57;;;;;;;;;;;;;;;;;;5028649;28;19964;-56
2023/03/09 07:58:23;;;;;;;;;;;;;;;;;;5009815;28;20453;-55
2023/03/09 08:00:49;;;;;;;;;;;;;;;;;;5009451;28;19924;-55
2023/03/09 08:03:15;;;;;;;;;;;;;;;;;;5014354;28;20016;-57
2023/03/09 08:05:41;;;;;;;;;;;;;;;;;;5010731;28;19909;-55
2023/03/09 08:08:07;;;;;;;;;;;;;;;;;;5010465;28;19916;-57
2023/03/09 08:10:33;;;;;;;;;;;;;;;;;;5009523;28;19918;-57
2023/03/09 08:12:59;;;;;;;;;;;;;;;;;;5009357;28;20348;-57
2023/03/09 08:15:25;;;;;;;;;;;;;;;;;;5009055;28;19914;-57
2023/03/09 08:17:51;;;;;;;;;;;;;;;;;;5027036;28;20596;-56
2023/03/09 08:20:17;;;;;;;;;;;;;;;;;;5031706;28;19925;-55
2023/03/09 08:22:43;;;;;;;;;;;;;;;;;;5019607;28;20013;-56
2023/03/09 08:25:09;;;;;;;;;;;;;;;;;;5032030;28;19929;-56
2023/03/09 08:27:35;;;;;;;;;;;;;;;;;;5032264;28;19932;-56
2023/03/09 08:30:01;;;;;;;;;;;;;;;;;;5032183;28;20400;-56
2023/03/09 08:32:26;;;;;;;;;;;;;;;;;;5032315;28;19909;-54
2023/03/09 08:34:52;;;;;;;;;;;;;;;;;;5025805;28;20370;-55
2023/03/09 08:37:18;;;;;;;;;;;;;;;;;;5027790;28;19952;-56
2023/03/09 08:39:44;;;;;;;;;;;;;;;;;;5032241;28;20345;-57
2023/03/09 08:42:10;;;;;;;;;;;;;;;;;;5031775;28;19917;-56
2023/03/09 08:44:36;;;;;;;;;;;;;;;;;;5025293;28;19968;-58
2023/03/09 08:47:02;;;;;;;;;;;;;;;;;;5018972;28;20441;-56
2023/03/09 08:49:28;;;;;;;;;;;;;;;;;;5018776;28;20004;-56
2023/03/09 08:51:55;;;;;;;;;;;;;;;;;;5025375;28;19909;-57
2023/03/09 08:54:21;;;;;;;;;;;;;;;;;;5012959;28;20630;-54
2023/03/09 08:56:47;;;;;;;;;;;;;;;;;;5032094;28;20421;-57
2023/03/09 08:59:12;;;;;;;;;;;;;;;;;;5013105;28;19914;-56
2023/03/09 09:01:38;;;;;;;;;;;;;;;;;;5012631;28;19909;-56
2023/03/09 09:04:04;;;;;;;;;;;;;;;;;;5012372;28;19910;-57
2023/03/09 09:06:30;;;;;;;;;;;;;;;;;;5016410;28;19922;-55
2023/03/09 09:08:56;;;;;;;;;;;;;;;;;;5016754;28;20028;-55
2023/03/09 09:11:22;;;;;;;;;;;;;;;;;;5018370;28;20619;-63
2023/03/09 09:13:48;;;;;;;;;;;;;;;;;;5020344;28;19917;-62
2023/03/09 09:16:15;;;;;;;;;;;;;;;;;;5018302;28;19917;-61
2023/03/09 09:18:41;;;;;;;;;;;;;;;;;;5014186;28;19909;-64
2023/03/09 09:21:07;;;;;;;;;;;;;;;;;;5021497;28;20028;-63
2023/03/09 09:23:33;;;;;;;;;;;;;;;;;;5026509;28;20386;-63
2023/03/09 09:25:59;;;;;;;;;;;;;;;;;;5018347;28;19920;-62
2023/03/09 09:28:25;;;;;;;;;;;;;;;;;;5017569;28;20068;-63
2023/03/09 09:30:51;;;;;;;;;;;;;;;;;;5025205;28;19922;-63
2023/03/09 09:33:17;;;;;;;;;;;;;;;;;;5026077;28;19914;-62
2023/03/09 09:35:43;;;;;;;;;;;;;;;;;;5027731;28;20007;-63
2023/03/09 09:38:10;;;;;;;;;;;;;;;;;;5023697;28;19995;-63
2023/03/09 09:40:36;;;;;;;;;;;;;;;;;;5030549;28;19916;-64
2023/03/09 09:43:03;;;;;;;;;;;;;;;;;;5030391;28;19913;-62
2023/03/09 09:45:29;;;;;;;;;;;;;;;;;;5027662;28;19956;-65
2023/03/09 09:47:55;;;;;;;;;;;;;;;;;;5019294;28;19959;-64
2023/03/09 09:50:21;;;;;;;;;;;;;;;;;;5009778;28;19975;-63
2023/03/09 09:52:47;;;;;;;;;;;;;;;;;;5016610;28;19920;-64
2023/03/09 09:55:13;;;;;;;;;;;;;;;;;;5022374;28;19909;-63
2023/03/09 09:57:39;;;;;;;;;;;;;;;;;;5025367;28;20354;-62
2023/03/09 10:00:05;;;;;;;;;;;;;;;;;;5022760;28;20382;-63
2023/03/09 10:02:30;;;;;;;;;;;;;;;;;;5025094;28;19920;-62
2023/03/09 10:04:56;;;;;;;;;;;;;;;;;;5026311;28;19935;-62
2023/03/09 10:07:22;;;;;;;;;;;;;;;;;;5018876;28;20420;-62
2023/03/09 10:09:48;;;;;;;;;;;;;;;;;;5020833;28;19922;-64
2023/03/09 10:12:14;;;;;;;;;;;;;;;;;;5013454;28;20306;-63
2023/03/09 10:14:40;;;;;;;;;;;;;;;;;;5011840;28;20012;-61
2023/03/09 10:17:06;;;;;;;;;;;;;;;;;;5020434;28;20274;-62
2023/03/09 10:19:32;;;;;;;;;;;;;;;;;;5011940;28;19914;-63
2023/03/09 10:21:58;;;;;;;;;;;;;;;;;;5013959;28;20377;-63
2023/03/09 10:24:24;;;;;;;;;;;;;;;;;;5021148;28;19909;-63
2023/03/09 10:26:50;;;;;;;;;;;;;;;;;;5027671;28;19928;-63
2023/03/09 10:29:16;;;;;;;;;;;;;;;;;;5028236;28;19921;-63
2023/03/09 10:31:41;;;;;;;;;;;;;;;;;;5027748;28;19921;-63
2023/03/09 10:34:07;;;;;;;;;;;;;;;;;;5026586;28;19932;-61
2023/03/09 10:36:33;;;;;;;;;;;;;;;;;;5018685;28;20420;-63
2023/03/09 10:39:01;;;;;;;;;;;;;;;;;;5011546;28;19910;-64
2023/03/09 10:41:27;;;;;;;;;;;;;;;;;;5025109;28;20322;-64
2023/03/09 10:43:53;;;;;;;;;;;;;;;;;;5010419;28;20020;-64
2023/03/09 10:46:19;;;;;;;;;;;;;;;;;;5013581;28;19920;-64
2023/03/09 10:48:45;;;;;;;;;;;;;;;;;;5014527;28;19913;-65
2023/03/09 10:51:11;;;;;;;;;;;;;;;;;;5022946;28;19956;-63
2023/03/09 10:53:37;;;;;;;;;;;;;;;;;;5027833;28;19966;-64
2023/03/09 10:56:03;;;;;;;;;;;;;;;;;;5027796;28;19990;-62
2023/03/09 10:58:29;;;;;;;;;;;;;;;;;;5022132;28;19974;-65
2023/03/09 11:00:55;;;;;;;;;;;;;;;;;;5011196;28;19928;-63
2023/03/09 11:03:21;;;;;;;;;;;;;;;;;;5014386;28;19909;-65
2023/03/09 11:05:47;;;;;;;;;;;;;;;;;;5015487;28;19916;-63
2023/03/09 11:08:12;;;;;;;;;;;;;;;;;;5021034;28;19944;-64
2023/03/09 11:10:38;;;;;;;;;;;;;;;;;;5014557;28;19935;-63
2023/03/09 11:13:04;;;;;;;;;;;;;;;;;;5028189;28;20463;-63
2023/03/09 11:15:30;;;;;;;;;;;;;;;;;;5021276;28;19961;-62
2023/03/09 11:17:56;;;;;;;;;;;;;;;;;;5015122;28;19936;-63
2023/03/09 11:20:26;;;;;;;;;;;;;;;;;;5026411;28;19988;-63
2023/03/09 11:22:52;;;;;;;;;;;;;;;;;;5015675;28;19910;-62
2023/03/09 11:25:18;;;;;;;;;;;;;;;;;;5008571;28;19919;-63
2023/03/09 11:27:44;;;;;;;;;;;;;;;;;;5008417;28;19947;-64
2023/03/09 11:30:10;;;;;;;;;;;;;;;;;;5020901;28;19971;-65
2023/03/09 11:32:38;;;;;;;;;;;;;;;;;;5007459;28;21326;-64
2023/03/09 11:35:03;;;;;;;;;;;;;;;;;;5012135;28;19909;-65
2023/03/09 11:37:29;;;;;;;;;;;;;;;;;;5013986;28;20035;-65
2023/03/09 11:39:55;;;;;;;;;;;;;;;;;;5026909;28;19916;-64
2023/03/09 11:42:21;;;;;;;;;;;;;;;;;;5016683;28;19924;-64
2023/03/09 11:44:47;;;;;;;;;;;;;;;;;;5010238;28;19929;-65
2023/03/09 11:47:13;;;;;;;;;;;;;;;;;;5023323;28;19960;-64
2023/03/09 11:49:39;;;;;;;;;;;;;;;;;;5010830;28;19944;-65
2023/03/09 11:52:05;;;;;;;;;;;;;;;;;;5026256;28;19971;-63
2023/03/09 11:54:31;;;;;;;;;;;;;;;;;;5027522;28;19991;-64
2023/03/09 11:56:56;;;;;;;;;;;;;;;;;;5018834;28;19916;-63
2023/03/09 11:59:22;;;;;;;;;;;;;;;;;;5013754;28;19989;-64
2023/03/09 12:01:48;;;;;;;;;;;;;;;;;;5009185;28;19913;-64
2023/03/09 12:04:14;;;;;;;;;;;;;;;;;;5008742;28;19921;-63
2023/03/09 12:06:40;;;;;;;;;;;;;;;;;;5026830;28;19917;-65
2023/03/09 12:09:06;;;;;;;;;;;;;;;;;;5027096;28;20425;-65
2023/03/09 12:11:32;;;;;;;;;;;;;;;;;;5024715;28;19917;-63
2023/03/09 12:13:58;;;;;;;;;;;;;;;;;;5023520;28;20553;-63
2023/03/09 12:16:24;;;;;;;;;;;;;;;;;;5023990;28;19930;-63
2023/03/09 12:18:50;;;;;;;;;;;;;;;;;;5019422;28;19959;-64
2023/03/09 12:21:15;;;;;;;;;;;;;;;;;;5021058;28;20263;-63
2023/03/09 12:23:42;;;;;;;;;;;;;;;;;;5013070;28;19917;-63
2023/03/09 12:26:08;;;;;;;;;;;;;;;;;;5019574;28;19914;-63
2023/03/09 12:28:34;;;;;;;;;;;;;;;;;;5010159;28;19922;-63
2023/03/09 12:31:00;;;;;;;;;;;;;;;;;;5017900;28;19925;-63
2023/03/09 12:33:28;;;;;;;;;;;;;;;;;;5010231;28;20455;-69
2023/03/09 12:35:54;;;;;;;;;;;;;;;;;;5013424;28;19949;-71
2023/03/09 12:38:20;;;;;;;;;;;;;;;;;;5008567;28;19956;-71
2023/03/09 12:40:46;;;;;;;;;;;;;;;;;;5024269;28;19913;-71
2023/03/09 12:43:12;;;;;;;;;;;;;;;;;;5020150;28;19975;-71
2023/03/09 12:45:38;;;;;;;;;;;;;;;;;;5026540;28;19920;-72
2023/03/09 12:48:04;;;;;;;;;;;;;;;;;;5023647;28;20216;-70
2023/03/09 12:50:30;;;;;;;;;;;;;;;;;;5012158;28;19960;-69
2023/03/09 12:52:55;;;;;;;;;;;;;;;;;;5016634;28;20028;-71
2023/03/09 12:55:21;;;;;;;;;;;;;;;;;;5011681;28;19913;-70
2023/03/09 12:57:47;;;;;;;;;;;;;;;;;;5008284;28;19956;-72
2023/03/09 13:00:13;;;;;;;;;;;;;;;;;;5013005;28;19913;-70
2023/03/09 13:02:41;;;;;;;;;;;;;;;;;;5015607;28;19956;-70
2023/03/09 13:05:07;;;;;;;;;;;;;;;;;;5028817;28;19910;-70
2023/03/09 13:07:32;;;;;;;;;;;;;;;;;;5023976;28;19917;-70
2023/03/09 13:09:59;;;;;;;;;;;;;;;;;;5018195;28;20569;-71
2023/03/09 13:12:24;;;;;;;;;;;;;;;;;;5028272;28;20313;-69
2023/03/09 13:14:51;;;;;;;;;;;;;;;;;;5021271;28;19933;-71
2023/03/09 13:17:17;;;;;;;;;;;;;;;;;;5029580;28;20371;-68
2023/03/09 13:19:43;;;;;;;;;;;;;;;;;;5022746;28;19990;-60
2023/03/09 13:22:08;;;;;;;;;;;;;;;;;;5011191;28;19953;-62
2023/03/09 13:24:41;;;;;;;;;;;;;;;;;;5010208;28;19913;-60
2023/03/09 13:27:07;;;;;;;;;;;;;;;;;;5015191;28;19918;-62
2023/03/09 13:29:33;;;;;;;;;;;;;;;;;;5010434;28;19941;-63
2023/03/09 13:31:59;;;;;;;;;;;;;;;;;;5029936;28;19913;-63
2023/03/09 13:34:24;;;;;;;;;;;;;;;;;;5017287;28;19914;-61
2023/03/09 13:36:51;;;;;;;;;;;;;;;;;;5021449;28;19933;-61
2023/03/09 13:39:16;;;;;;;;;;;;;;;;;;5017269;28;19909;-62
2023/03/09 13:41:42;;;;;;;;;;;;;;;;;;5019365;28;19939;-60
2023/03/09 13:44:08;;;;;;;;;;;;;;;;;;5019462;28;19948;-62
2023/03/09 13:46:34;;;;;;;;;;;;;;;;;;5015799;28;19935;-61
2023/03/09 13:49:02;;;;;;;;;;;;;;;;;;5023051;28;19918;-60
2023/03/09 13:51:28;;;;;;;;;;;;;;;;;;5016392;28;19970;-61
2023/03/09 13:53:54;;;;;;;;;;;;;;;;;;5024778;28;19909;-60
2023/03/09 13:56:20;;;;;;;;;;;;;;;;;;5027516;28;19988;-63
2023/03/09 13:58:48;;;;;;;;;;;;;;;;;;5019465;28;19975;-70
2023/03/09 14:01:14;;;;;;;;;;;;;;;;;;5026746;28;19913;-69
2023/03/09 14:03:40;;;;;;;;;;;;;;;;;;5027974;28;19925;-67
2023/03/09 14:06:06;;;;;;;;;;;;;;;;;;5025807;28;20020;-68
2023/03/09 14:08:32;;;;;;;;;;;;;;;;;;5023569;28;19920;-68
2023/03/09 14:10:58;;;;;;;;;;;;;;;;;;5021423;28;19921;-69
2023/03/09 14:13:23;;;;;;;;;;;;;;;;;;5025761;28;19999;-70
2023/03/09 14:15:49;;;;;;;;;;;;;;;;;;5023910;28;19913;-70
2023/03/09 14:18:15;;;;;;;;;;;;;;;;;;5024868;28;19913;-69
2023/03/09 14:20:41;;;;;;;;;;;;;;;;;;5025797;28;20008;-70
2023/03/09 14:23:07;;;;;;;;;;;;;;;;;;5023843;28;19917;-69
2023/03/09 14:25:33;;;;;;;;;;;;;;;;;;5013223;28;19917;-69
2023/03/09 14:28:01;;;;;;;;;;;;;;;;;;5020646;28;19922;-70
2023/03/09 14:30:27;;;;;;;;;;;;;;;;;;5010478;28;19922;-70
2023/03/09 14:32:53;;;;;;;;;;;;;;;;;;5009212;28;20405;-70
2023/03/09 14:35:19;;;;;;;;;;;;;;;;;;5022778;28;19913;-70
2023/03/09 14:37:45;;;;;;;;;;;;;;;;;;5016023;28;20421;-71
2023/03/09 14:40:10;;;;;;;;;;;;;;;;;;5009765;28;19913;-70
2023/03/09 14:42:36;;;;;;;;;;;;;;;;;;5024809;28;19909;-70
2023/03/09 14:45:03;;;;;;;;;;;;;;;;;;5021738;28;19913;-70
2023/03/09 14:47:29;;;;;;;;;;;;;;;;;;5016498;28;19913;-70
2023/03/09 14:49:55;;;;;;;;;;;;;;;;;;5021248;28;19917;-70
2023/03/09 14:52:21;;;;;;;;;;;;;;;;;;5027820;28;19917;-69
2023/03/09 14:54:47;;;;;;;;;;;;;;;;;;5010430;28;19980;-70
2023/03/09 14:57:13;;;;;;;;;;;;;;;;;;5016043;28;19916;-70
2023/03/09 14:59:39;;;;;;;;;;;;;;;;;;5009608;28;20777;-71
2023/03/09 15:02:05;;;;;;;;;;;;;;;;;;5009974;28;19914;-71
2023/03/09 15:04:30;;;;;;;;;;;;;;;;;;5009641;28;19959;-71
2023/03/09 15:06:56;;;;;;;;;;;;;;;;;;5021624;28;20008;-70
2023/03/09 15:09:22;;;;;;;;;;;;;;;;;;5008069;28;20340;-71
2023/03/09 15:11:48;;;;;;;;;;;;;;;;;;5009097;28;19921;-71
2023/03/09 15:14:14;;;;;;;;;;;;;;;;;;5022263;28;19917;-71
2023/03/09 15:16:40;;;;;;;;;;;;;;;;;;5010883;28;20394;-71
2023/03/09 15:19:06;;;;;;;;;;;;;;;;;;5028171;28;20039;-71
2023/03/09 15:21:32;;;;;;;;;;;;;;;;;;5013582;28;20600;-71
2023/03/09 15:23:57;;;;;;;;;;;;;;;;;;5015517;28;19909;-70
2023/03/09 15:26:23;;;;;;;;;;;;;;;;;;5021348;28;20350;-68
2023/03/09 15:28:49;;;;;;;;;;;;;;;;;;5009302;28;20283;-70
2023/03/09 15:31:15;;;;;;;;;;;;;;;;;;5008605;28;20298;-71
2023/03/09 15:33:41;;;;;;;;;;;;;;;;;;5008272;28;20056;-69
2023/03/09 15:36:07;;;;;;;;;;;;;;;;;;5012017;28;20463;-69
2023/03/09 15:38:33;;;;;;;;;;;;;;;;;;5008775;28;19910;-71
2023/03/09 15:40:59;;;;;;;;;;;;;;;;;;5018578;28;20445;-71
2023/03/09 15:43:25;;;;;;;;;;;;;;;;;;5027043;28;20365;-70
2023/03/09 15:45:50;;;;;;;;;;;;;;;;;;5022113;28;19917;-70
2023/03/09 15:48:16;;;;;;;;;;;;;;;;;;5013848;28;20350;-70
2023/03/09 15:50:42;;;;;;;;;;;;;;;;;;5027237;28;19948;-71
2023/03/09 15:53:08;;;;;;;;;;;;;;;;;;5026971;28;20365;-69
2023/03/09 15:55:34;;;;;;;;;;;;;;;;;;5021023;28;19917;-70
2023/03/09 15:58:00;;;;;;;;;;;;;;;;;;5022456;28;19909;-70
2023/03/09 16:00:27;;;;;;;;;;;;;;;;;;5008559;28;19988;-70
2023/03/09 16:02:53;;;;;;;;;;;;;;;;;;5010510;28;19924;-69
2023/03/09 16:05:19;;;;;;;;;;;;;;;;;;5007662;28;19909;-70
2023/03/09 16:07:45;;;;;;;;;;;;;;;;;;5008312;28;20388;-71
2023/03/09 16:10:11;;;;;;;;;;;;;;;;;;5008027;28;19928;-72
2023/03/09 16:12:37;;;;;;;;;;;;;;;;;;5023848;28;20294;-69
2023/03/09 16:15:03;;;;;;;;;;;;;;;;;;5020497;28;19955;-70
2023/03/09 16:17:29;;;;;;;;;;;;;;;;;;5018312;28;19971;-71
2023/03/09 16:19:54;;;;;;;;;;;;;;;;;;5009573;28;20345;-73
2023/03/09 16:22:21;;;;;;;;;;;;;;;;;;5013545;28;19913;-71
2023/03/09 16:24:47;;;;;;;;;;;;;;;;;;5024589;28;19920;-72
2023/03/09 16:27:13;;;;;;;;;;;;;;;;;;5024421;28;20008;-72
2023/03/09 16:29:39;;;;;;;;;;;;;;;;;;5024406;28;19957;-72
2023/03/09 16:32:05;;;;;;;;;;;;;;;;;;5024741;28;19923;-73
2023/03/09 16:34:31;;;;;;;;;;;;;;;;;;5015993;28;19968;-73
2023/03/09 16:36:58;;;;;;;;;;;;;;;;;;5017620;28;20348;-72